Tiempo atmosférico en la estación meteorológica de Almonte, Huelva (5 m.)

Fecha
DESCASC
Temp. máxima en grados centígrados (hora)
DESCASC
Temp. mínima en grados centígrados (hora)
DESCASC
Temp. media en grados centígrados
DESCASC
Racha de viento máxima en m/sg (hora)
DESCASC
Velocidad máxima media en intervalos de 10 minutos(hora)
DESCASC
Precipitaciones diarias en mm
DESCASC
Precipitaciones de 00:00 a 06:00 en mm
DESCASC
Precipitaciones de 06:00 a 12:00 en mm
DESCASC
Precipitaciones de 12:00 a 18:00 en mm
DESCASC
Precipitaciones de 18:00 a 24:00 en mm
DESCASC
19-10-2017 23.9 (17:50) 15.3 (03:30) 19.6 8.89 (17:00) 6.67 (17:00) 15 14.8 0.2 0 0
18-10-2017 22.9 (16:50) 16.9 (07:30) 19.9 10 (07:00) 6.39 (17:00) 5.8 1.8 3.6 0 0.4
17-10-2017 27.8 (13:30) 19.6 (08:30) 23.7 13.61 (13:40) 9.17 (13:40) 0 0 0 0 0
16-10-2017 31.1 (15:30) 12.9 (07:30) 22 11.67 (14:10) 5.83 (15:20) 0 0 0 0 0
15-10-2017 35.6 (16:00) 12.7 (00:00) 24.1 9.17 (16:20) 3.89 (15:10) 0 0 0 0 0
14-10-2017 35.2 (17:00) 15.3 (00:00) 25.3 6.67 (12:00) 4.72 (17:10) 0 0 0 0 0
13-10-2017 35.5 (16:20) 14.1 (00:00) 24.8 7.22 (18:30) 5.56 (17:50) 0 0 0 0 0
12-10-2017 34.2 (16:00) 14.5 (00:00) 24.4 7.78 (12:50) 5 (17:30) 0 0 0 0 0
11-10-2017 34.6 (17:10) 10.8 (00:00) 22.7 6.67 (15:40) 3.61 (17:20) 0 0 0 0 0
10-10-2017 33.4 (16:40) 11 (00:00) 22.2 6.67 (17:00) 5 (17:00) 0 0 0 0 0
09-10-2017 29.5 (14:30) 12.7 (00:00) 21.1 7.78 (17:00) 6.11 (17:00) 0 0 0 0 0
08-10-2017 32.2 (16:20) 12 (00:00) 22.1 6.67 (16:30) 5.28 (18:00) 0 0 0 0 0
07-10-2017 30.4 (15:00) 13.6 (00:00) 22 8.06 (16:50) 5.56 (17:30) 0 0 0 0 0
06-10-2017 33.4 (14:20) 10.6 (00:00) 22 8.06 (16:40) 6.11 (18:00) 0 0 0 0 0
05-10-2017 34.1 (17:20) 13.9 (00:00) 24 8.61 (17:40) 5.56 (18:40) 0 0 0 0 0
04-10-2017 34.4 (15:30) 14.5 (00:00) 24.5 9.17 (16:40) 6.67 (16:40) 0 0 0 0 0
03-10-2017 33.5 (16:20) 14.5 (00:00) 24 8.89 (16:30) 5.56 (16:50) 0 0 0 0 0
02-10-2017 34.3 (17:20) 13.5 (00:00) 23.9 9.72 (16:10) 6.39 (18:20) 0 0 0 0 0
01-10-2017 32.2 (14:50) 13.2 (00:00) 22.7 6.67 (18:00) 5.56 (18:00) 0 0 0 0 0
30-09-2017 30.1 (15:50) 14.5 (00:00) 22.3 8.06 (16:50) 6.39 (16:40) 0 0 0 0 0
29-09-2017 30.5 (13:50) 13.8 (00:00) 22.2 7.5 (17:40) 5.56 (17:40) 0 0 0 0 0
28-09-2017 32.7 (15:30) 17.1 (00:00) 24.9 9.72 (15:40) 5 (17:30) 0 0 0 0 0
27-09-2017 25.4 (18:10) 11.4 (00:00) 18.4 6.11 (16:10) 3.89 (16:00) 0 0 0 0 0
26-09-2017 29.4 (13:40) 10.5 (00:00) 19.9 9.72 (16:40) 7.5 (16:40) 0 0 0 0 0
25-09-2017 31.5 (14:10) 12.4 (00:00) 21.9 10 (19:40) 7.5 (19:00) 0 0 0 0 0
24-09-2017 32 (16:10) 15 (00:00) 23.5 8.61 (17:40) 6.39 (18:10) 0 0 0 0 0
23-09-2017 32.8 (16:40) 12.7 (00:00) 22.7 8.33 (16:20) 6.11 (17:50) 0 0 0 0 0
22-09-2017 28.7 (16:40) 11.6 (00:00) 20.2 8.33 (18:10) 6.39 (18:10) 0 0 0 0 0
21-09-2017 28.7 (14:00) 9.9 (00:00) 19.3 8.33 (16:00) 6.39 (15:50) 0 0 0 0 0
20-09-2017 29.6 (16:20) 10.8 (00:00) 20.2 8.33 (18:30) 6.11 (18:10) 0 0 0 0 0

Gráficas

Temp. máximas Temp. mínimas Temp. medias Precipitaciones Rachas de viento máximas Velocidades máximas media en intervalos de 10 minutos

Datos horarios

Fecha y hora oficial Temperatura (ºC) Velocidad del viento (km/h) Dirección del viento Racha (km/h) Dirección de racha Precipitación (mm) Presión (hPa) Tendencia (hPa) Humedad (%)
2017-10-19 23:00:00 19.8 11 Oeste 15 Oeste 0 -- -- 84
2017-10-19 22:00:00 19.8 10 Oeste 15 Oeste 0 -- -- 82
2017-10-19 21:00:00 20 11 Oeste 16 Sudoeste 0 -- -- 80
2017-10-19 20:00:00 20.3 9 Oeste 20 Oeste 0 -- -- 78
2017-10-19 19:00:00 21.3 15 Oeste 28 Oeste 0 -- -- 71
2017-10-19 18:00:00 23.9 18 Oeste 30 Oeste 0 -- -- 61
2017-10-19 17:00:00 22.5 24 Oeste 32 Oeste 0 -- -- 68
2017-10-19 16:00:00 22.7 16 Oeste 30 Oeste 0 -- -- 67
2017-10-19 15:00:00 22.4 12 Oeste 26 Oeste 0 -- -- 64
2017-10-19 14:00:00 21.5 13 Oeste 25 Sudoeste 0 -- -- 75
2017-10-19 13:00:00 20.8 8 Oeste 15 Oeste 0 -- -- 78
2017-10-19 12:00:00 19.5 6 Oeste 10 Sur 0 -- -- 83
2017-10-19 11:00:00 17.7 4 Oeste 8 Oeste 0 -- -- 98
2017-10-19 10:00:00 16.2 3 Noroeste 5 Noroeste 0.2 -- -- 98
2017-10-19 09:00:00 15.7 2 Nordeste 10 Nordeste 0 -- -- 97
2017-10-19 08:00:00 15.6 5 Norte 11 Nordeste 0 -- -- 97
2017-10-19 07:00:00 15.5 3 Oeste 6 Sudoeste 0 -- -- 97
2017-10-19 06:00:00 15.5 2 Oeste 6 Nordeste 0 -- -- 97
2017-10-19 05:00:00 15.4 4 Nordeste 13 Este 1.8 -- -- 97
2017-10-19 04:00:00 15.4 7 Nordeste 17 Nordeste 5.8 -- -- 96
2017-10-19 03:00:00 15.4 9 Nordeste 15 Nordeste 4.8 -- -- 95
2017-10-19 02:00:00 16.3 3 Norte 18 Norte 1 -- -- 94
2017-10-19 01:00:00 17.7 6 Norte 15 Norte 1.4 -- -- 92
2017-10-19 00:00:00 18.6 4 Noroeste 13 Oeste 0.2 -- -- 89
2017-10-18 23:00:00 18.7 10 Oeste 21 Sudoeste 0.2 -- -- 88
2017-10-18 22:00:00 19.3 16 Oeste 30 Oeste 0 -- -- 84
2017-10-18 21:00:00 19.4 17 Sudoeste 30 Oeste 0 -- -- 81
2017-10-18 20:00:00 19.5 19 Sudoeste 33 Sudoeste 0 -- -- 79
2017-10-18 19:00:00 19.9 16 Sudoeste 30 Oeste 0 -- -- 76
2017-10-18 18:00:00 20.6 21 Sudoeste 33 Oeste 0 -- -- 76
2017-10-18 17:00:00 22.3 23 Sudoeste 32 Sudoeste 0 -- -- 71
2017-10-18 16:00:00 21.3 20 Oeste 30 Oeste 0 -- -- 69
2017-10-18 15:00:00 21.1 17 Oeste 24 Sudoeste 0 -- -- 72
2017-10-18 14:00:00 21.5 16 Sudoeste 22 Sudoeste 0 -- -- 68
2017-10-18 13:00:00 20.5 8 Oeste 22 Noroeste 0 -- -- 75
2017-10-18 12:00:00 20.2 12 Noroeste 21 Noroeste 0 -- -- 74
2017-10-18 11:00:00 19 9 Noroeste 19 Oeste 0 -- -- 85
2017-10-18 10:00:00 17.9 10 Sudoeste 19 Sudoeste 0 -- -- 95
2017-10-18 09:00:00 17.1 9 Sudoeste 13 Oeste 1.2 -- -- 95
2017-10-18 08:00:00 16.9 9 Oeste 31 Oeste 1.6 -- -- 94
2017-10-18 07:00:00 17.3 21 Oeste 36 Oeste 0.8 -- -- 90
2017-10-18 06:00:00 17.7 11 Oeste 24 Oeste 1.8 -- -- 91
2017-10-18 05:00:00 19.1 10 Oeste 23 Oeste 0 -- -- 83
2017-10-18 04:00:00 19.8 6 Oeste 13 Oeste 0 -- -- 76
2017-10-18 03:00:00 19.7 3 Oeste 10 Oeste 0 -- -- 82
2017-10-18 02:00:00 20.3 9 Oeste 24 Oeste 0 -- -- 81
2017-10-18 01:00:00 20.4 13 Oeste 22 Oeste 0 -- -- 79
2017-10-18 00:00:00 20.5 12 Sudoeste 22 Oeste 0 -- -- 79
2017-10-17 23:00:00 20.4 12 Oeste 18 Sudoeste 0 -- -- 81
2017-10-17 22:00:00 20.5 9 Sudoeste 15 Sudoeste 0 -- -- 83
2017-10-17 21:00:00 20.3 8 Sudoeste 13 Sudoeste 0 -- -- 81
2017-10-17 20:00:00 21.5 8 Sudoeste 17 Sudoeste 0 -- -- 72
2017-10-17 19:00:00 22.6 13 Sudoeste 19 Sudoeste 0 -- -- 66
2017-10-17 18:00:00 23.2 12 Sudoeste 21 Sudoeste 0 -- -- 69
2017-10-17 17:00:00 23.1 15 Sudoeste 30 Sudoeste 0 -- -- 77
2017-10-17 16:00:00 22.8 19 Sudoeste 36 Sur 0 -- -- 85
2017-10-17 15:00:00 24.7 27 Sudoeste 41 Sudoeste 0 -- -- 70
2017-10-17 14:00:00 26.1 29 Sur 49 Sur 0 -- -- 61
2017-10-17 13:00:00 26.8 31 Sur 42 Sudoeste 0 -- -- 55
2017-10-17 12:00:00 24.4 23 Sur 34 Sur 0 -- -- 62
2017-10-17 11:00:00 22 16 Sur 29 Sur 0 -- -- 72
2017-10-17 10:00:00 21.2 19 Sur 26 Sur 0 -- -- 76
2017-10-17 09:00:00 19.9 11 Sur 19 Sur 0 -- -- 80
2017-10-17 08:00:00 19.9 10 Sur 18 Sur 0 -- -- 79
2017-10-17 07:00:00 20.5 7 Sudoeste 27 Sur 0 -- -- 75
2017-10-17 06:00:00 21.2 11 Sur 19 Sur 0 -- -- 74
2017-10-17 05:00:00 21.3 12 Sur 19 Sur 0 -- -- 71
2017-10-17 04:00:00 20.6 3 Oeste 7 Nordeste 0 -- -- 68
2017-10-17 03:00:00 21.8 0 Calma 21 Sur 0 -- -- 65
2017-10-17 02:00:00 22.4 13 Sur 28 Sur 0 -- -- 63
2017-10-17 01:00:00 22.2 12 Sudeste 29 Sur 0 -- -- 63
2017-10-17 00:00:00 22.3 13 Sur 30 Sudeste 0 -- -- 62
2017-10-16 23:00:00 22.5 10 Sudeste 26 Sudeste 0 -- -- 61
2017-10-16 22:00:00 23.1 9 Sudeste 26 Sur 0 -- -- 59
2017-10-16 21:00:00 23.9 8 Sudeste 23 Sur 0 -- -- 55
2017-10-16 20:00:00 25.1 9 Sudeste 24 Sur 0 -- -- 51
2017-10-16 19:00:00 26.4 13 Sur 31 Sudeste 0 -- -- 48
2017-10-16 18:00:00 27.4 12 Sudeste 31 Sur 0 -- -- 46
2017-10-16 17:00:00 28.7 12 Sudeste 32 Sur 0 -- -- 43
2017-10-16 16:00:00 30.3 19 Sur 36 Sur 0 -- -- 40
2017-10-16 15:00:00 30 14 Sudeste 42 Sur 0 -- -- 39
2017-10-16 14:00:00 30.5 18 Sudeste 38 Sur 0 -- -- 39
2017-10-16 13:00:00 29.3 14 Sudeste 32 Sudeste 0 -- -- 42
2017-10-16 12:00:00 25.8 10 Sudeste 25 Este 0 -- -- 48
2017-10-16 11:00:00 22.9 5 Este 13 Nordeste 0 -- -- 53
2017-10-16 10:00:00 18.4 4 Norte 12 Noroeste 0 -- -- 65
2017-10-16 09:00:00 14.7 7 Noroeste 14 Noroeste 0 -- -- 63
2017-10-16 08:00:00 13.9 6 Noroeste 13 Noroeste 0 -- -- 62
2017-10-16 07:00:00 14.9 2 Noroeste 11 Norte 0 -- -- 58
2017-10-16 06:00:00 16.5 4 Norte 17 Norte 0 -- -- 55
2017-10-16 05:00:00 16.4 6 Norte 13 Nordeste 0 -- -- 57
2017-10-16 04:00:00 16.6 8 Norte 15 Nordeste 0 -- -- 59
2017-10-16 03:00:00 16.7 8 Norte 14 Norte 0 -- -- 62
2017-10-16 02:00:00 16.2 8 Norte 15 Norte 0 -- -- 65
2017-10-16 01:00:00 16.8 8 Norte 13 Nordeste 0 -- -- 67
2017-10-16 00:00:00 17.4 4 Norte 10 Nordeste 0 -- -- 68
2017-10-15 23:00:00 18.5 4 Nordeste 9 Sudeste 0 -- -- 64
2017-10-15 22:00:00 20.5 6 Sur 12 Sur 0 -- -- 57
2017-10-15 21:00:00 23.1 4 Este 16 Este 0 -- -- 48
2017-10-15 20:00:00 27.4 3 Sudeste 14 Sur 0 -- -- 38
2017-10-15 19:00:00 31.6 6 Sudeste 23 Sudoeste 0 -- -- 30
2017-10-15 18:00:00 33.6 8 Sudeste 30 Sur 0 -- -- 28
2017-10-15 17:00:00 35 13 Sudeste 33 Sudeste 0 -- -- 26
2017-10-15 16:00:00 35.6 11 Sudeste 32 Sudeste 0 -- -- 26
2017-10-15 15:00:00 34.5 13 Sudeste 28 Este 0 -- -- 25
2017-10-15 14:00:00 33.3 12 Sudeste 31 Este 0 -- -- 24
2017-10-15 13:00:00 31.2 9 Este 23 Sudeste 0 -- -- 30
2017-10-15 12:00:00 27.7 7 Este 20 Nordeste 0 -- -- 35
2017-10-15 11:00:00 23.1 8 Este 16 Este 0 -- -- 48
2017-10-15 10:00:00 16.9 5 Nordeste 12 Este 0 -- -- 70
2017-10-15 09:00:00 13.6 7 Nordeste 18 Nordeste 0 -- -- 76
2017-10-15 08:00:00 13.4 10 Nordeste 17 Nordeste 0 -- -- 72
2017-10-15 07:00:00 13.6 8 Nordeste 15 Nordeste 0 -- -- 72
2017-10-15 06:00:00 12.9 3 Este 6 Nordeste 0 -- -- 74
2017-10-15 05:00:00 15 0 Calma 8 Nordeste 0 -- -- 66
2017-10-15 04:00:00 14.4 2 Norte 9 Nordeste 0 -- -- 71
2017-10-15 03:00:00 15.2 3 Sudoeste 5 Oeste 0 -- -- 67
2017-10-15 02:00:00 16.8 3 Oeste 7 Sur 0 -- -- 66
2017-10-15 01:00:00 17.9 3 Sur 10 Sur 0 -- -- 61
2017-10-15 00:00:00 20.4 6 Noroeste 13 Noroeste 0 -- -- 55
2017-10-14 23:00:00 18.9 4 Oeste 6 Oeste 0 -- -- 60
2017-10-14 22:00:00 20.6 3 Oeste 6 Noroeste 0 -- -- 60
2017-10-14 21:00:00 24 5 Noroeste 10 Oeste 0 -- -- 54
2017-10-14 20:00:00 25.8 7 Sudoeste 13 Oeste 0 -- -- 46
2017-10-14 19:00:00 29.6 9 Oeste 18 Sudoeste 0 -- -- 38
2017-10-14 18:00:00 32.9 12 Sudoeste 23 Sudoeste 0 -- -- 32
2017-10-14 17:00:00 35.2 7 Sudeste 18 Sudoeste 0 -- -- 25
2017-10-14 16:00:00 33.8 8 Sudeste 22 Sudeste 0 -- -- 22
2017-10-14 15:00:00 33.7 10 Este 23 Este 0 -- -- 23
2017-10-14 14:00:00 32.5 8 Este 19 Nordeste 0 -- -- 25
2017-10-14 13:00:00 29.4 10 Nordeste 23 Nordeste 0 -- -- 29
2017-10-14 12:00:00 26.6 17 Nordeste 24 Nordeste 0 -- -- 34
2017-10-14 11:00:00 22 11 Nordeste 17 Nordeste 0 -- -- 45
2017-10-14 10:00:00 18.7 7 Nordeste 11 Nordeste 0 -- -- 57
2017-10-14 09:00:00 17.5 5 Norte 17 Norte 0 -- -- 59
2017-10-14 08:00:00 16 5 Norte 14 Nordeste 0 -- -- 66
2017-10-14 07:00:00 15.7 4 Norte 12 Norte 0 -- -- 66
2017-10-14 06:00:00 16 4 Norte 9 Nordeste 0 -- -- 65
2017-10-14 05:00:00 16.5 3 Norte 8 Nordeste 0 -- -- 62
2017-10-14 04:00:00 15.6 5 Nordeste 8 Nordeste 0 -- -- 63
2017-10-14 03:00:00 15.5 6 Este 10 Nordeste 0 -- -- 63
2017-10-14 02:00:00 18.3 7 Norte 12 Norte 0 -- -- 56
2017-10-14 01:00:00 18.7 7 Noroeste 10 Noroeste 0 -- -- 54
2017-10-14 00:00:00 19.9 5 Norte 10 Norte 0 -- -- 52
2017-10-13 23:00:00 19.2 3 Noroeste 5 Noroeste 0 -- -- 61
2017-10-13 22:00:00 20.2 0 Calma 8 Oeste 0 -- -- 55
2017-10-13 21:00:00 22.3 4 Oeste 11 Sudoeste 0 -- -- 59
2017-10-13 20:00:00 24.6 6 Oeste 18 Oeste 0 -- -- 44
2017-10-13 19:00:00 28 14 Oeste 26 Oeste 0 -- -- 37
2017-10-13 18:00:00 30.5 20 Sudoeste 25 Sudoeste 0 -- -- 32
2017-10-13 17:00:00 35.1 14 Sudoeste 23 Sur 0 -- -- 24
2017-10-13 16:00:00 35.1 7 Sur 17 Sur 0 -- -- 23
2017-10-13 15:00:00 33.8 8 Sudeste 15 Sudeste 0 -- -- 24
2017-10-13 14:00:00 32.2 7 Sudeste 17 Sur 0 -- -- 25
2017-10-13 13:00:00 29.6 6 Nordeste 15 Nordeste 0 -- -- 29
2017-10-13 12:00:00 24.9 6 Norte 19 Nordeste 0 -- -- 39
2017-10-13 11:00:00 21.3 5 Nordeste 12 Noroeste 0 -- -- 55
2017-10-13 10:00:00 17.3 4 Nordeste 11 Norte 0 -- -- 78
2017-10-13 09:00:00 15.7 6 Norte 11 Norte 0 -- -- 86
2017-10-13 08:00:00 15.6 4 Norte 12 Norte 0 -- -- 91
2017-10-13 07:00:00 14.6 3 Norte 6 Nordeste 0 -- -- 91
2017-10-13 06:00:00 14.1 0 Calma 3 Este 0 -- -- 90
2017-10-13 05:00:00 14.9 0 Calma 4 Sur 0 -- -- 85
2017-10-13 04:00:00 16.3 3 Nordeste 8 Noroeste 0 -- -- 87
2017-10-13 03:00:00 16.7 3 Nordeste 10 Norte 0 -- -- 84
2017-10-13 02:00:00 18.2 4 Oeste 9 Noroeste 0 -- -- 84
2017-10-13 01:00:00 18.7 6 Noroeste 10 Noroeste 0 -- -- 83
2017-10-13 00:00:00 18.7 4 Noroeste 10 Noroeste 0 -- -- 79
2017-10-12 23:00:00 19.1 5 Oeste 15 Oeste 0 -- -- 80
2017-10-12 22:00:00 19.1 9 Oeste 13 Oeste 0 -- -- 80
2017-10-12 21:00:00 21.4 5 Oeste 12 Oeste 0 -- -- 71
2017-10-12 20:00:00 24.4 8 Oeste 21 Oeste 0 -- -- 66
2017-10-12 19:00:00 26.9 17 Oeste 23 Sudoeste 0 -- -- 58
2017-10-12 18:00:00 29.3 17 Sudoeste 24 Sudoeste 0 -- -- 51
2017-10-12 17:00:00 31.9 16 Sudoeste 23 Sur 0 -- -- 39
2017-10-12 16:00:00 34.2 15 Sur 23 Sudoeste 0 -- -- 29
2017-10-12 15:00:00 33 15 Sudoeste 23 Sur 0 -- -- 32
2017-10-12 14:00:00 33 16 Sudoeste 22 Sudoeste 0 -- -- 29
2017-10-12 13:00:00 31.3 16 Sur 28 Sur 0 -- -- 31
2017-10-12 12:00:00 27.4 7 Este 17 Este 0 -- -- 40
2017-10-12 11:00:00 21.5 6 Nordeste 12 Nordeste 0 -- -- 55
2017-10-12 10:00:00 17.3 6 Nordeste 9 Nordeste 0 -- -- 67
2017-10-12 09:00:00 16.1 5 Nordeste 8 Nordeste 0 -- -- 66
2017-10-12 08:00:00 15.8 6 Nordeste 12 Nordeste 0 -- -- 67
2017-10-12 07:00:00 14.5 4 Nordeste 7 Nordeste 0 -- -- 71
2017-10-12 06:00:00 14.8 5 Nordeste 15 Nordeste 0 -- -- 70
2017-10-12 05:00:00 16.3 10 Oeste 17 Oeste 0 -- -- 65
2017-10-12 04:00:00 15.9 4 Norte 8 Noroeste 0 -- -- 66
2017-10-12 03:00:00 18.5 3 Norte 14 Norte 0 -- -- 59
2017-10-12 02:00:00 18.1 4 Norte 6 Norte 0 -- -- 58
2017-10-12 01:00:00 19.6 3 Nordeste 13 Nordeste 0 -- -- 54
2017-10-12 00:00:00 19.8 6 Nordeste 10 Nordeste 0 -- -- 52
2017-10-11 23:00:00 20.4 6 Este 11 Nordeste 0 -- -- 51
2017-10-11 22:00:00 21.6 6 Nordeste 15 Este 0 -- -- 44
2017-10-11 21:00:00 25.1 10 Sur 18 Sur 0 -- -- 38
2017-10-11 20:00:00 27.2 9 Sur 15 Sur 0 -- -- 43
2017-10-11 19:00:00 29.2 4 Sudoeste 15 Sudoeste 0 -- -- 41
2017-10-11 18:00:00 31.2 13 Sudoeste 19 Sudoeste 0 -- -- 34
2017-10-11 17:00:00 34.3 8 Sudeste 22 Este 0 -- -- 26
2017-10-11 16:00:00 34 8 Sudeste 24 Sur 0 -- -- 27
2017-10-11 15:00:00 32.1 5 Este 17 Sudeste 0 -- -- 29
2017-10-11 14:00:00 30.5 5 Este 21 Este 0 -- -- 33
2017-10-11 13:00:00 28 12 Nordeste 21 Este 0 -- -- 40
2017-10-11 12:00:00 24.9 12 Nordeste 19 Nordeste 0 -- -- 49
2017-10-11 11:00:00 21.3 11 Nordeste 18 Nordeste 0 -- -- 59
2017-10-11 10:00:00 15.3 6 Nordeste 14 Norte 0 -- -- 83
2017-10-11 09:00:00 13 8 Nordeste 13 Norte 0 -- -- 84
2017-10-11 08:00:00 11.9 6 Nordeste 10 Nordeste 0 -- -- 90
2017-10-11 07:00:00 12.9 4 Nordeste 11 Nordeste 0 -- -- 89
2017-10-11 06:00:00 11.3 5 Nordeste 8 Nordeste 0 -- -- 93
2017-10-11 05:00:00 10.9 4 Nordeste 5 Este 0 -- -- 92
2017-10-11 04:00:00 11.3 2 Oeste 5 Nordeste 0 -- -- 89
2017-10-11 03:00:00 12.7 0 Calma 8 Nordeste 0 -- -- 92
2017-10-11 02:00:00 13.6 3 Nordeste 6 Sudoeste 0 -- -- 90
2017-10-11 01:00:00 15.6 3 Oeste 6 Oeste 0 -- -- 91
2017-10-11 00:00:00 16.6 5 Oeste 10 Oeste 0 -- -- 89
2017-10-10 23:00:00 17.9 8 Oeste 10 Oeste 0 -- -- 84
2017-10-10 22:00:00 18.5 6 Oeste 13 Sudoeste 0 -- -- 85
2017-10-10 21:00:00 20.3 9 Sudoeste 12 Oeste 0 -- -- 77
2017-10-10 20:00:00 23.6 10 Oeste 20 Sudoeste 0 -- -- 69
2017-10-10 19:00:00 27.6 15 Sudoeste 22 Sudoeste 0 -- -- 54
2017-10-10 18:00:00 29.1 17 Sudoeste 23 Sudoeste 0 -- -- 47
2017-10-10 17:00:00 31.5 18 Sudoeste 24 Sudoeste 0 -- -- 43
2017-10-10 16:00:00 32.8 9 Sur 15 Sur 0 -- -- 29
2017-10-10 15:00:00 31 6 Sudeste 14 Sur 0 -- -- 36
2017-10-10 14:00:00 28.3 6 Este 15 Nordeste 0 -- -- 46
2017-10-10 13:00:00 26.1 9 Nordeste 18 Nordeste 0 -- -- 56
2017-10-10 12:00:00 23.6 9 Este 18 Nordeste 0 -- -- 62
2017-10-10 11:00:00 19.3 8 Nordeste 13 Nordeste 0 -- -- 81
2017-10-10 10:00:00 14.3 6 Nordeste 11 Norte 0 -- -- 98
2017-10-10 09:00:00 13 4 Norte 9 Nordeste 0 -- -- 97
2017-10-10 08:00:00 11.4 4 Nordeste 8 Nordeste 0 -- -- 98
2017-10-10 07:00:00 11.8 3 Nordeste 6 Nordeste 0 -- -- 96
2017-10-10 06:00:00 12.4 0 Calma 8 Nordeste 0 -- -- 97
2017-10-10 05:00:00 13.3 2 Sur 5 Sudoeste 0 -- -- 97
2017-10-10 04:00:00 15.5 3 Sudoeste 6 Sudoeste 0 -- -- 95
2017-10-10 03:00:00 15.8 4 Sudoeste 6 Sudoeste 0 -- -- 97
2017-10-10 02:00:00 15.6 5 Sur 9 Sur 0 -- -- 97
2017-10-10 01:00:00 15.2 5 Sur 6 Sur 0 -- -- 95
2017-10-10 00:00:00 15.4 0 Calma 7 Este 0 -- -- 93
2017-10-09 23:00:00 16.3 4 Este 7 Nordeste 0 -- -- 91
2017-10-09 22:00:00 19.3 0 Calma 9 Oeste 0 -- -- 87
2017-10-09 21:00:00 20.9 8 Oeste 19 Oeste 0 -- -- 87
2017-10-09 20:00:00 22.5 12 Oeste 24 Oeste 0 -- -- 79
2017-10-09 19:00:00 25.4 15 Oeste 25 Oeste 0 -- -- 60
2017-10-09 18:00:00 27.2 19 Sudoeste 27 Sudoeste 0 -- -- 55
2017-10-09 17:00:00 28 22 Sudoeste 28 Sudoeste 0 -- -- 52
2017-10-09 16:00:00 28.3 19 Sudoeste 26 Sudoeste 0 -- -- 50
2017-10-09 15:00:00 28.7 19 Sudoeste 27 Sudoeste 0 -- -- 47
2017-10-09 14:00:00 29.3 10 Sudoeste 18 Sudoeste 0 -- -- 45
2017-10-09 13:00:00 27.9 9 Sudoeste 19 Sur 0 -- -- 46
2017-10-09 12:00:00 26.2 10 Sur 17 Sur 0 -- -- 53
2017-10-09 11:00:00 21.3 3 Este 7 Nordeste 0 -- -- 71
2017-10-09 10:00:00 15.7 0 Calma 10 Nordeste 0 -- -- 97
2017-10-09 09:00:00 13.6 3 Nordeste 6 Nordeste 0 -- -- 96
2017-10-09 08:00:00 13.3 0 Calma 2 Sudeste 0 -- -- 93
2017-10-09 07:00:00 14.7 0 Calma 5 Sur 0 -- -- 95
2017-10-09 06:00:00 16.5 4 Sudoeste 7 Sudoeste 0 -- -- 96
2017-10-09 05:00:00 15.6 5 Sudoeste 9 Sur 0 -- -- 95
2017-10-09 04:00:00 15.6 7 Sur 8 Sur 0 -- -- 94
2017-10-09 03:00:00 16 3 Sur -- -- 0 -- -- 94
2017-10-09 02:00:00 16.3 5 Oeste 6 Sudeste 0 -- -- 91
2017-10-09 01:00:00 16.8 2 Sudeste 5 Este 0 -- -- 87
2017-10-09 00:00:00 19.7 6 Oeste 12 Oeste 0 -- -- 87
2017-10-08 23:00:00 20.4 8 Oeste 16 Oeste 0 -- -- 84
2017-10-08 22:00:00 21.3 13 Oeste 18 Sudoeste 0 -- -- 83
2017-10-08 21:00:00 22 12 Oeste 18 Oeste 0 -- -- 80
2017-10-08 20:00:00 24 12 Oeste 23 Sudoeste 0 -- -- 66
2017-10-08 19:00:00 27.5 17 Sudoeste 23 Sudoeste 0 -- -- 53
2017-10-08 18:00:00 29.6 19 Sudoeste 23 Sudoeste 0 -- -- 43
2017-10-08 17:00:00 31.3 17 Sudoeste 24 Sudoeste 0 -- -- 39
2017-10-08 16:00:00 31.8 11 Noroeste 22 Norte 0 -- -- 38
2017-10-08 15:00:00 31.1 5 Este 20 Nordeste 0 -- -- 35
2017-10-08 14:00:00 30.4 7 Sudeste 17 Este 0 -- -- 41
2017-10-08 13:00:00 27.9 6 Este 17 Nordeste 0 -- -- 44
2017-10-08 12:00:00 25.3 7 Nordeste 16 Nordeste 0 -- -- 52
2017-10-08 11:00:00 21.5 8 Nordeste 14 Nordeste 0 -- -- 70
2017-10-08 10:00:00 17.1 5 Nordeste 10 Norte 0 -- -- 98
2017-10-08 09:00:00 14.6 5 Nordeste 9 Nordeste 0 -- -- 98
2017-10-08 08:00:00 12.7 0 Calma 3 Nordeste 0 -- -- 96
2017-10-08 07:00:00 12.1 0 Calma 5 Oeste 0 -- -- 94
2017-10-08 06:00:00 12.7 0 Calma 5 Nordeste 0 -- -- 91
2017-10-08 05:00:00 14.2 3 Este 10 Nordeste 0 -- -- 93
2017-10-08 04:00:00 16.4 3 Nordeste 11 Noroeste 0 -- -- 89
2017-10-08 03:00:00 16.3 6 Norte 11 Norte 0 -- -- 93
2017-10-08 02:00:00 16.4 5 Norte 8 Norte 0 -- -- 89
2017-10-08 01:00:00 16.4 3 Noroeste 5 Noroeste 0 -- -- 86
2017-10-08 00:00:00 17.3 3 Noroeste 6 Sudoeste 0 -- -- 76
2017-10-07 23:00:00 18.6 6 Sudoeste 8 Sur 0 -- -- 78
2017-10-07 22:00:00 20.6 2 Noroeste 14 Oeste 0 -- -- 89
2017-10-07 21:00:00 21.6 8 Oeste 17 Oeste 0 -- -- 82
2017-10-07 20:00:00 23.5 12 Oeste 21 Oeste 0 -- -- 74
2017-10-07 19:00:00 25.9 17 Oeste 24 Oeste 0 -- -- 65
2017-10-07 18:00:00 27.5 18 Sudoeste 27 Sudoeste 0 -- -- 58
2017-10-07 17:00:00 28.6 19 Sudoeste 29 Oeste 0 -- -- 55
2017-10-07 16:00:00 29.8 17 Sudoeste 27 Sudoeste 0 -- -- 49
2017-10-07 15:00:00 30.4 16 Sudoeste 26 Sudoeste 0 -- -- 44
2017-10-07 14:00:00 29.2 15 Sudoeste 23 Sudoeste 0 -- -- 50
2017-10-07 13:00:00 28 14 Sudoeste 19 Sur 0 -- -- 52
2017-10-07 12:00:00 24 10 Sur 19 Sur 0 -- -- 69
2017-10-07 11:00:00 19.4 2 Sudeste 8 Sudeste 0 -- -- 98
2017-10-07 10:00:00 17.2 3 Este 8 Nordeste 0 -- -- 98
2017-10-07 09:00:00 15.3 5 Nordeste 11 Nordeste 0 -- -- 98
2017-10-07 08:00:00 13.9 4 Nordeste 8 Nordeste 0 -- -- 97
2017-10-07 07:00:00 14.8 2 Norte 7 Nordeste 0 -- -- 97
2017-10-07 06:00:00 13.6 0 Calma 4 Nordeste 0 -- -- 96
2017-10-07 05:00:00 14.1 3 Sudoeste 6 Sudoeste 0 -- -- 96
2017-10-07 04:00:00 14.6 3 Sudoeste 6 Sudoeste 0 -- -- 95
2017-10-07 03:00:00 15.1 3 Sudoeste 8 Sur 0 -- -- 95
2017-10-07 02:00:00 14.2 4 Sudeste 8 Sudeste 0 -- -- 89
2017-10-07 01:00:00 15.6 4 Nordeste 8 Nordeste 0 -- -- 88
2017-10-07 00:00:00 16.6 3 Sudeste 8 Sudeste 0 -- -- 86
2017-10-06 23:00:00 17.9 2 Sudeste 9 Noroeste 0 -- -- 80
2017-10-06 22:00:00 20.5 7 Noroeste 14 Oeste 0 -- -- 83
2017-10-06 21:00:00 21.4 10 Oeste 15 Sudoeste 0 -- -- 78
2017-10-06 20:00:00 23.5 11 Oeste 26 Sudoeste 0 -- -- 67
2017-10-06 19:00:00 26.1 20 Oeste 28 Oeste 0 -- -- 58
2017-10-06 18:00:00 28.2 22 Sudoeste 27 Sudoeste 0 -- -- 50
2017-10-06 17:00:00 30 20 Sudoeste 29 Sudoeste 0 -- -- 38
2017-10-06 16:00:00 30.7 22 Sudoeste 26 Sudoeste 0 -- -- 44
2017-10-06 15:00:00 32.5 17 Sudoeste 26 Sudoeste 0 -- -- 33
2017-10-06 14:00:00 33.2 5 Sur 13 Sudoeste 0 -- -- 29
2017-10-06 13:00:00 29.8 5 Norte 12 Nordeste 0 -- -- 36
2017-10-06 12:00:00 27 5 Norte 14 Nordeste 0 -- -- 43
2017-10-06 11:00:00 22.9 7 Nordeste 13 Nordeste 0 -- -- 53
2017-10-06 10:00:00 17.2 6 Nordeste 10 Nordeste 0 -- -- 82
2017-10-06 09:00:00 11.5 5 Nordeste 6 Nordeste 0 -- -- 94
2017-10-06 08:00:00 11.6 0 Calma 8 Nordeste 0 -- -- 90
2017-10-06 07:00:00 12.9 2 Nordeste 5 Sudeste 0 -- -- 92
2017-10-06 06:00:00 12.8 4 Sur 7 Noroeste 0 -- -- 88
2017-10-06 05:00:00 14.8 5 Noroeste 8 Noroeste 0 -- -- 90
2017-10-06 04:00:00 14.7 4 Oeste 8 Noroeste 0 -- -- 86
2017-10-06 03:00:00 16.3 4 Noroeste 8 Noroeste 0 -- -- 84
2017-10-06 02:00:00 18.4 6 Norte 14 Noroeste 0 -- -- 81
2017-10-06 01:00:00 17.5 7 Noroeste 12 Noroeste 0 -- -- 82
2017-10-06 00:00:00 17.6 3 Noroeste 10 Noroeste 0 -- -- 73
2017-10-05 23:00:00 18.4 3 Noroeste 6 Noroeste 0 -- -- 69
2017-10-05 22:00:00 21 3 Oeste 12 Oeste 0 -- -- 68
2017-10-05 21:00:00 22.7 10 Oeste 15 Oeste 0 -- -- 61
2017-10-05 20:00:00 25.4 13 Oeste 24 Oeste 0 -- -- 51
2017-10-05 19:00:00 28.7 17 Oeste 27 Sudoeste 0 -- -- 44
2017-10-05 18:00:00 33.9 13 Nordeste 31 Este 0 -- -- 26
2017-10-05 17:00:00 33.8 11 Nordeste 28 Nordeste 0 -- -- 28
2017-10-05 16:00:00 33.3 10 Este 27 Nordeste 0 -- -- 31
2017-10-05 15:00:00 31.7 11 Este 29 Nordeste 0 -- -- 34
2017-10-05 14:00:00 30.3 12 Nordeste 29 Nordeste 0 -- -- 36
2017-10-05 13:00:00 28.9 10 Este 23 Nordeste 0 -- -- 39
2017-10-05 12:00:00 27 11 Nordeste 20 Nordeste 0 -- -- 44
2017-10-05 11:00:00 24.5 10 Nordeste 18 Norte 0 -- -- 53
2017-10-05 10:00:00 20.2 9 Nordeste 14 Nordeste 0 -- -- 70
2017-10-05 09:00:00 16.9 6 Norte 11 Norte 0 -- -- 81
2017-10-05 08:00:00 14.3 3 Norte 9 Nordeste 0 -- -- 90
2017-10-05 07:00:00 14.2 0 Calma 5 Sur 0 -- -- 89
2017-10-05 06:00:00 14.9 2 Sudeste 4 Sudeste 0 -- -- 79
2017-10-05 05:00:00 15.8 2 Este 6 Sudoeste 0 -- -- 84
2017-10-05 04:00:00 17 2 Norte 8 Norte 0 -- -- 76
2017-10-05 03:00:00 18.9 4 Noroeste 11 Norte 0 -- -- 75
2017-10-05 02:00:00 19.7 6 Norte 10 Norte 0 -- -- 73
2017-10-05 01:00:00 20.5 8 Noroeste 15 Noroeste 0 -- -- 69
2017-10-05 00:00:00 22 5 Norte 9 Norte 0 -- -- 54
2017-10-04 23:00:00 22.8 5 Norte 17 Sur 0 -- -- 52
2017-10-04 22:00:00 24.5 8 Sudeste 24 Sur 0 -- -- 48
2017-10-04 21:00:00 25.5 13 Sur 20 Sur 0 -- -- 44
2017-10-04 20:00:00 27.8 12 Sur 26 Sur 0 -- -- 46
2017-10-04 19:00:00 31.1 18 Sur 29 Sur 0 -- -- 39
2017-10-04 18:00:00 32.5 21 Sur 30 Sur 0 -- -- 37
2017-10-04 17:00:00 31.3 22 Sudoeste 33 Sudoeste 0 -- -- 42
2017-10-04 16:00:00 33.9 15 Sudoeste 25 Sudoeste 0 -- -- 34
2017-10-04 15:00:00 33.6 9 Sur 17 Sudeste 0 -- -- 34
2017-10-04 14:00:00 31.6 6 Este 17 Este 0 -- -- 37
2017-10-04 13:00:00 29.8 8 Este 19 Nordeste 0 -- -- 44
2017-10-04 12:00:00 28.2 6 Sudeste 22 Este 0 -- -- 48
2017-10-04 11:00:00 24.7 8 Nordeste 14 Este 0 -- -- 59
2017-10-04 10:00:00 18.5 3 Nordeste 7 Nordeste 0 -- -- 84
2017-10-04 09:00:00 15.4 6 Nordeste 9 Nordeste 0 -- -- 89
2017-10-04 08:00:00 15.5 5 Nordeste 9 Nordeste 0 -- -- 88
2017-10-04 07:00:00 15.1 4 Este 7 Nordeste 0 -- -- 90
2017-10-04 06:00:00 14.7 4 Este 9 Noroeste 0 -- -- 88
2017-10-04 05:00:00 15.1 4 Norte 8 Norte 0 -- -- 88
2017-10-04 04:00:00 15.9 2 Norte 5 Nordeste 0 -- -- 89
2017-10-04 03:00:00 16.9 0 Calma 7 Oeste 0 -- -- 86
2017-10-04 02:00:00 18.5 6 Noroeste 11 Noroeste 0 -- -- 84
2017-10-04 01:00:00 18.2 0 Calma 6 Sudoeste 0 -- -- 79
2017-10-04 00:00:00 19.9 6 Oeste 11 Oeste 0 -- -- 76
2017-10-03 23:00:00 21.4 6 Oeste 10 Oeste 0 -- -- 76
2017-10-03 22:00:00 22 8 Oeste 14 Sudoeste 0 -- -- 77
2017-10-03 21:00:00 23.2 10 Sudoeste 15 Sudoeste 0 -- -- 67
2017-10-03 20:00:00 26 12 Oeste 22 Oeste 0 -- -- 55
2017-10-03 19:00:00 28.8 17 Oeste 24 Oeste 0 -- -- 47
2017-10-03 18:00:00 30 18 Oeste 24 Oeste 0 -- -- 44
2017-10-03 17:00:00 31.4 18 Sudoeste 32 Sudoeste 0 -- -- 41
2017-10-03 16:00:00 33.1 9 Este 22 Este 0 -- -- 31
2017-10-03 15:00:00 31.8 9 Nordeste 19 Nordeste 0 -- -- 34
2017-10-03 14:00:00 31 4 Sudoeste 14 Nordeste 0 -- -- 36
2017-10-03 13:00:00 28.7 6 Norte 17 Nordeste 0 -- -- 42
2017-10-03 12:00:00 27.7 6 Este 16 Nordeste 0 -- -- 46
2017-10-03 11:00:00 24.7 10 Nordeste 18 Nordeste 0 -- -- 54
2017-10-03 10:00:00 20 8 Nordeste 14 Norte 0 -- -- 72
2017-10-03 09:00:00 16.6 6 Nordeste 9 Norte 0 -- -- 84
2017-10-03 08:00:00 16.2 6 Norte 11 Nordeste 0 -- -- 85
2017-10-03 07:00:00 14.8 4 Nordeste 8 Nordeste 0 -- -- 87
2017-10-03 06:00:00 15.7 5 Nordeste 11 Norte 0 -- -- 86
2017-10-03 05:00:00 15.8 6 Nordeste 9 Nordeste 0 -- -- 83
2017-10-03 04:00:00 16 5 Norte 9 Nordeste 0 -- -- 82
2017-10-03 03:00:00 16.6 3 Norte 6 Nordeste 0 -- -- 76
2017-10-03 02:00:00 18.6 4 Nordeste 5 Norte 0 -- -- 69
2017-10-03 01:00:00 19.4 3 Norte 8 Norte 0 -- -- 66
2017-10-03 00:00:00 20.3 3 Norte 9 Nordeste 0 -- -- 63
2017-10-02 23:00:00 23.1 7 Sur 22 Sudeste 0 -- -- 55
2017-10-02 22:00:00 24 15 Sur 27 Sur 0 -- -- 52
2017-10-02 21:00:00 24.5 12 Sur 17 Sur 0 -- -- 54
2017-10-02 20:00:00 25.9 10 Sudoeste 24 Sudoeste 0 -- -- 61
2017-10-02 19:00:00 28.7 18 Oeste 33 Oeste 0 -- -- 51
2017-10-02 18:00:00 33.4 7 Oeste 30 Nordeste 0 -- -- 37
2017-10-02 17:00:00 34 16 Nordeste 35 Nordeste 0 -- -- 31
2017-10-02 16:00:00 33.3 14 Nordeste 31 Nordeste 0 -- -- 34
2017-10-02 15:00:00 32.1 14 Nordeste 27 Nordeste 0 -- -- 36
2017-10-02 14:00:00 31.1 10 Este 22 Nordeste 0 -- -- 38
2017-10-02 13:00:00 29.1 10 Nordeste 20 Nordeste 0 -- -- 43
2017-10-02 12:00:00 27.2 7 Nordeste 18 Nordeste 0 -- -- 49
2017-10-02 11:00:00 23.9 11 Nordeste 18 Nordeste 0 -- -- 61
2017-10-02 10:00:00 18 5 Norte 10 Nordeste 0 -- -- 82
2017-10-02 09:00:00 14.4 2 Norte 5 Norte 0 -- -- 95
2017-10-02 08:00:00 14 0 Calma 4 Norte 0 -- -- 93
2017-10-02 07:00:00 13.5 0 Calma 3 Nordeste 0 -- -- 92
2017-10-02 06:00:00 13.9 0 Calma 3 Sudeste 0 -- -- 92
2017-10-02 05:00:00 14.6 0 Calma 0 Calma 0 -- -- 92
2017-10-02 04:00:00 15.1 0 Calma 5 Norte 0 -- -- 89
2017-10-02 03:00:00 16.5 3 Noroeste 11 Nordeste 0 -- -- 90
2017-10-02 02:00:00 16.2 7 Nordeste 10 Este 0 -- -- 89
2017-10-02 01:00:00 17.4 3 Noroeste 5 Noroeste 0 -- -- 87
2017-10-02 00:00:00 18.9 4 Noroeste 8 Sudoeste 0 -- -- 86
2017-10-01 23:00:00 19.4 7 Oeste 11 Sudoeste 0 -- -- 85
2017-10-01 22:00:00 20.4 8 Sudoeste 12 Sudoeste 0 -- -- 81
2017-10-01 21:00:00 22 8 Sudoeste 17 Sudoeste 0 -- -- 75
2017-10-01 20:00:00 23.9 13 Sudoeste 23 Oeste 0 -- -- 66
2017-10-01 19:00:00 26.1 18 Sudoeste 24 Oeste 0 -- -- 56
2017-10-01 18:00:00 28.2 20 Sudoeste 24 Sudoeste 0 -- -- 50
2017-10-01 17:00:00 30.4 17 Oeste 22 Sudoeste 0 -- -- 43
2017-10-01 16:00:00 30.7 15 Oeste 21 Oeste 0 -- -- 42
2017-10-01 15:00:00 31.7 16 Sudoeste 22 Oeste 0 -- -- 41
2017-10-01 14:00:00 30.9 9 Nordeste 17 Nordeste 0 -- -- 40
2017-10-01 13:00:00 28.7 6 Nordeste 17 Nordeste 0 -- -- 48
2017-10-01 12:00:00 26.2 6 Nordeste 13 Nordeste 0 -- -- 57
2017-10-01 11:00:00 22.3 6 Nordeste 13 Nordeste 0 -- -- 71
2017-10-01 10:00:00 17 6 Nordeste 10 Norte 0 -- -- 85
2017-10-01 09:00:00 15.3 6 Norte 10 Norte 0 -- -- 88
2017-10-01 08:00:00 13.8 3 Norte 6 Nordeste 0 -- -- 90
2017-10-01 07:00:00 14.6 4 Norte 9 Nordeste 0 -- -- 83
2017-10-01 06:00:00 14.5 0 Calma 10 Noroeste 0 -- -- 79
2017-10-01 05:00:00 14.2 2 Noroeste 4 Noroeste 0 -- -- 82
2017-10-01 04:00:00 15.8 0 Calma 3 Sudoeste 0 -- -- 80
2017-10-01 03:00:00 17.1 3 Sudoeste 6 Sur 0 -- -- 84
2017-10-01 02:00:00 17.6 4 Sudoeste 9 Sur 0 -- -- 85
2017-10-01 01:00:00 19 2 Oeste 8 Sudoeste 0 -- -- 91
2017-10-01 00:00:00 19.6 3 Sur 10 Oeste 0 -- -- 86
2017-09-30 23:00:00 20.8 8 Oeste 13 Sudoeste 0 -- -- 84
2017-09-30 22:00:00 21.1 10 Sudoeste 17 Oeste 0 -- -- 78
2017-09-30 21:00:00 21.6 12 Oeste 22 Oeste 0 -- -- 70
2017-09-30 20:00:00 23.2 17 Oeste 27 Oeste 0 -- -- 66
2017-09-30 19:00:00 26 20 Oeste 26 Oeste 0 -- -- 55
2017-09-30 18:00:00 28.4 19 Oeste 27 Oeste 0 -- -- 47
2017-09-30 17:00:00 28.9 21 Oeste 29 Oeste 0 -- -- 44
2017-09-30 16:00:00 29.8 19 Oeste 26 Sudoeste 0 -- -- 42
2017-09-30 15:00:00 29.3 17 Oeste 25 Oeste 0 -- -- 42
2017-09-30 14:00:00 29.2 17 Sudoeste 23 Sudoeste 0 -- -- 44
2017-09-30 13:00:00 27.8 9 Oeste 16 Sudoeste 0 -- -- 50
2017-09-30 12:00:00 25.8 3 Este 9 Sur 0 -- -- 56
2017-09-30 11:00:00 23.1 2 Sudoeste 8 Nordeste 0 -- -- 66
2017-09-30 10:00:00 18.5 6 Nordeste 9 Nordeste 0 -- -- 84
2017-09-30 09:00:00 14.6 6 Nordeste 8 Nordeste 0 -- -- 89
2017-09-30 08:00:00 15.8 2 Noroeste 6 Oeste 0 -- -- 84
2017-09-30 07:00:00 17 4 Oeste 9 Sudoeste 0 -- -- 85
2017-09-30 06:00:00 17.1 9 Sudoeste 10 Sudoeste 0 -- -- 84
2017-09-30 05:00:00 17.8 7 Sudoeste 9 Sudoeste 0 -- -- 86
2017-09-30 04:00:00 18.4 6 Sudoeste 10 Sudoeste 0 -- -- 89
2017-09-30 03:00:00 19.9 8 Sudoeste 15 Sudoeste 0 -- -- 86
2017-09-30 02:00:00 19.3 8 Sudoeste 13 Sudoeste 0 -- -- 86
2017-09-30 01:00:00 20 8 Oeste 12 Sudoeste 0 -- -- 82
2017-09-30 00:00:00 20.8 10 Sudoeste 16 Sudoeste 0 -- -- 79
2017-09-29 23:00:00 21.3 9 Oeste 16 Oeste 0 -- -- 78
2017-09-29 22:00:00 21.7 12 Sudoeste 21 Oeste 0 -- -- 76
2017-09-29 21:00:00 22.8 14 Oeste 22 Oeste 0 -- -- 70
2017-09-29 20:00:00 24.8 15 Oeste 26 Oeste 0 -- -- 58
2017-09-29 19:00:00 27.8 18 Oeste 27 Oeste 0 -- -- 42
2017-09-29 18:00:00 29.4 19 Oeste 27 Sudoeste 0 -- -- 37
2017-09-29 17:00:00 30.3 19 Sudoeste 26 Oeste 0 -- -- 37
2017-09-29 16:00:00 30 17 Sudoeste 27 Sudoeste 0 -- -- 38
2017-09-29 15:00:00 30 19 Oeste 24 Oeste 0 -- -- 40
2017-09-29 14:00:00 30.3 10 Oeste 19 Oeste 0 -- -- 41
2017-09-29 13:00:00 29.5 6 Este 16 Este 0 -- -- 36
2017-09-29 12:00:00 27.9 5 Este 17 Este 0 -- -- 40
2017-09-29 11:00:00 24.3 7 Nordeste 13 Nordeste 0 -- -- 49
2017-09-29 10:00:00 18.8 3 Nordeste 7 Este 0 -- -- 68
2017-09-29 09:00:00 14.2 4 Nordeste 8 Nordeste 0 -- -- 85
2017-09-29 08:00:00 14.7 3 Nordeste 8 Nordeste 0 -- -- 84
2017-09-29 07:00:00 13.8 5 Este 9 Este 0 -- -- 82
2017-09-29 06:00:00 16.2 8 Norte 15 Norte 0 -- -- 78
2017-09-29 05:00:00 14.7 2 Norte 7 Nordeste 0 -- -- 75
2017-09-29 04:00:00 17.2 2 Norte 13 Noroeste 0 -- -- 71
2017-09-29 03:00:00 18.4 7 Norte 15 Noroeste 0 -- -- 70
2017-09-29 02:00:00 17.9 8 Noroeste 14 Noroeste 0 -- -- 73
2017-09-29 01:00:00 17.5 6 Noroeste 12 Noroeste 0 -- -- 66
2017-09-29 00:00:00 17.1 3 Este 5 Sudeste 0 -- -- 72
2017-09-28 23:00:00 18.6 2 Norte 5 Norte 0 -- -- 68
2017-09-28 22:00:00 21.7 4 Oeste 13 Oeste 0 -- -- 63
2017-09-28 21:00:00 23.2 10 Oeste 15 Oeste 0 -- -- 59
2017-09-28 20:00:00 25.8 10 Oeste 22 Oeste 0 -- -- 49
2017-09-28 19:00:00 28 16 Oeste 22 Oeste 0 -- -- 47
2017-09-28 18:00:00 30.9 15 Sudoeste 28 Oeste 0 -- -- 37
2017-09-28 17:00:00 32 8 Nordeste 21 Este 0 -- -- 32
2017-09-28 16:00:00 32.5 8 Este 35 Sur 0 -- -- 32
2017-09-28 15:00:00 31.6 7 Sudeste 24 Sudeste 0 -- -- 33
2017-09-28 14:00:00 31.3 10 Este 27 Este 0 -- -- 34
2017-09-28 13:00:00 28.5 5 Nordeste 12 Sudeste 0 -- -- 44
2017-09-28 12:00:00 26.9 7 Nordeste 16 Nordeste 0 -- -- 49
2017-09-28 11:00:00 23.8 3 Norte 10 Nordeste 0 -- -- 59
2017-09-28 10:00:00 21.1 6 Nordeste 10 Norte 0 -- -- 70
2017-09-28 09:00:00 18.8 4 Nordeste 11 Norte 0 -- -- 78
2017-09-28 08:00:00 18.5 8 Norte 12 Norte 0 -- -- 78
2017-09-28 07:00:00 18.4 3 Nordeste 4 Nordeste 0 -- -- 79
2017-09-28 06:00:00 19.4 2 Noroeste 13 Norte 0 -- -- 75
2017-09-28 05:00:00 19.5 8 Noroeste 12 Noroeste 0 -- -- 74
2017-09-28 04:00:00 18.2 7 Noroeste 11 Noroeste 0 -- -- 76
2017-09-28 03:00:00 17.3 0 Calma 4 Noroeste 0 -- -- 80
2017-09-28 02:00:00 18.4 0 Calma 4 Sudeste 0 -- -- 77
2017-09-28 01:00:00 19.7 0 Calma 6 Norte 0 -- -- 74
2017-09-28 00:00:00 20.4 0 Calma 6 Norte 0 -- -- 73
2017-09-27 23:00:00 21 4 Norte 6 Norte 0 -- -- 70
2017-09-27 22:00:00 22 3 Nordeste 8 Norte 0 -- -- 70
2017-09-27 21:00:00 23.1 4 Norte 8 Norte 0 -- -- 62
2017-09-27 20:00:00 24.3 4 Norte 18 Nordeste 0 -- -- 56
2017-09-27 19:00:00 25.2 11 Nordeste 19 Nordeste 0 -- -- 54
2017-09-27 18:00:00 25.2 10 Nordeste 21 Nordeste 0 -- -- 55
2017-09-27 17:00:00 24.8 11 Nordeste 22 Nordeste 0 -- -- 57
2017-09-27 16:00:00 24.3 14 Nordeste 22 Nordeste 0 -- -- 59
2017-09-27 15:00:00 24.1 12 Nordeste 20 Nordeste 0 -- -- 61
2017-09-27 14:00:00 23.1 10 Nordeste 18 Nordeste 0 -- -- 65
2017-09-27 13:00:00 21.3 10 Nordeste 18 Nordeste 0 -- -- 73
2017-09-27 12:00:00 19.9 10 Nordeste 17 Norte 0 -- -- 76
2017-09-27 11:00:00 18.1 11 Nordeste 18 Nordeste 0 -- -- 79
2017-09-27 10:00:00 17.1 7 Nordeste 11 Nordeste 0 -- -- 81
2017-09-27 09:00:00 15.9 7 Nordeste 9 Nordeste 0 -- -- 87
2017-09-27 08:00:00 15.1 5 Nordeste 12 Norte 0 -- -- 87
2017-09-27 07:00:00 14 9 Nordeste 12 Nordeste 0 -- -- 89
2017-09-27 06:00:00 14 5 Nordeste 8 Nordeste 0 -- -- 91
2017-09-27 05:00:00 13.2 5 Nordeste 7 Nordeste 0 -- -- 94
2017-09-27 04:00:00 12.5 5 Nordeste 7 Nordeste 0 -- -- 95
2017-09-27 03:00:00 11.4 4 Nordeste 5 Nordeste 0 -- -- 93
2017-09-27 02:00:00 11.6 0 Calma 5 Sudeste 0 -- -- 92
2017-09-27 01:00:00 12.6 0 Calma 4 Sur 0 -- -- 90
2017-09-27 00:00:00 15 4 Sudoeste 8 Sudoeste 0 -- -- 90
2017-09-26 23:00:00 16.1 4 Sur 9 Sudoeste 0 -- -- 85
2017-09-26 22:00:00 17.8 8 Sudoeste 15 Sudoeste 0 -- -- 85
2017-09-26 21:00:00 19 10 Sudoeste 21 Sudoeste 0 -- -- 81
2017-09-26 20:00:00 21 15 Sudoeste 23 Oeste 0 -- -- 68
2017-09-26 19:00:00 24.5 18 Sudoeste 28 Oeste 0 -- -- 52
2017-09-26 18:00:00 26.3 22 Oeste 34 Sudoeste 0 -- -- 34
2017-09-26 17:00:00 25.8 25 Sudoeste 35 Sudoeste 0 -- -- 44
2017-09-26 16:00:00 26 21 Sudoeste 28 Sudoeste 0 -- -- 42
2017-09-26 15:00:00 27.5 19 Sudoeste 25 Sudoeste 0 -- -- 43
2017-09-26 14:00:00 29.2 12 Sur 23 Sudoeste 0 -- -- 26
2017-09-26 13:00:00 28.6 7 Sur 18 Sur 0 -- -- 28
2017-09-26 12:00:00 26.1 5 Este 13 Este 0 -- -- 34
2017-09-26 11:00:00 21.4 4 Nordeste 11 Nordeste 0 -- -- 43
2017-09-26 10:00:00 15.5 3 Noroeste 11 Noroeste 0 -- -- 67
2017-09-26 09:00:00 10.5 0 Calma 11 Oeste 0 -- -- 79
2017-09-26 08:00:00 10.7 5 Oeste 8 Oeste 0 -- -- 74
2017-09-26 07:00:00 12.7 3 Oeste 9 Noroeste 0 -- -- 66
2017-09-26 06:00:00 15.8 6 Oeste 12 Noroeste 0 -- -- 58
2017-09-26 05:00:00 16.2 7 Noroeste 13 Noroeste 0 -- -- 56
2017-09-26 04:00:00 15.4 3 Norte 9 Norte 0 -- -- 61
2017-09-26 03:00:00 17 5 Norte 14 Noroeste 0 -- -- 59
2017-09-26 02:00:00 17.3 6 Noroeste 10 Oeste 0 -- -- 64
2017-09-26 01:00:00 18.4 5 Oeste 14 Oeste 0 -- -- 80
2017-09-26 00:00:00 19.5 10 Oeste 15 Oeste 0 -- -- 79
2017-09-25 23:00:00 20.6 13 Oeste 22 Oeste 0 -- -- 72
2017-09-25 22:00:00 21 15 Oeste 31 Oeste 0 -- -- 73
2017-09-25 21:00:00 21.4 19 Oeste 32 Oeste 0 -- -- 76
2017-09-25 20:00:00 23 24 Oeste 36 Oeste 0 -- -- 68
2017-09-25 19:00:00 25.6 27 Oeste 35 Oeste 0 -- -- 57
2017-09-25 18:00:00 28.9 24 Oeste 32 Oeste 0 -- -- 46
2017-09-25 17:00:00 31.1 23 Sudoeste 31 Oeste 0 -- -- 35
2017-09-25 16:00:00 30.3 22 Sudoeste 31 Sudoeste 0 -- -- 40
2017-09-25 15:00:00 31.1 22 Sudoeste 28 Sudoeste 0 -- -- 32
2017-09-25 14:00:00 31.2 15 Sudoeste 23 Oeste 0 -- -- 25
2017-09-25 13:00:00 29.5 5 Nordeste 14 Nordeste 0 -- -- 28
2017-09-25 12:00:00 26.6 5 Norte 10 Norte 0 -- -- 34
2017-09-25 11:00:00 22.8 4 Nordeste 10 Norte 0 -- -- 46
2017-09-25 10:00:00 18.2 6 Norte 11 Norte 0 -- -- 52
2017-09-25 09:00:00 13.1 4 Nordeste 14 Noroeste 0 -- -- 65
2017-09-25 08:00:00 14.4 8 Noroeste 14 Norte 0 -- -- 56
2017-09-25 07:00:00 13.5 4 Norte 8 Norte 0 -- -- 69
2017-09-25 06:00:00 12.5 4 Nordeste 8 Noroeste 0 -- -- 80
2017-09-25 05:00:00 13.9 2 Noroeste 6 Norte 0 -- -- 74
2017-09-25 04:00:00 15.2 2 Oeste 6 Sur 0 -- -- 77
2017-09-25 03:00:00 16.1 4 Sur 8 Sur 0 -- -- 76
2017-09-25 02:00:00 17.6 3 Sudoeste 8 Oeste 0 -- -- 76
2017-09-25 01:00:00 17.8 5 Sur 9 Oeste 0 -- -- 86
2017-09-25 00:00:00 18.8 4 Sur 9 Oeste 0 -- -- 83
2017-09-24 23:00:00 20.8 6 Noroeste 15 Oeste 0 -- -- 81
2017-09-24 22:00:00 21.2 11 Oeste 15 Oeste 0 -- -- 81
2017-09-24 21:00:00 22.3 12 Oeste 21 Sudoeste 0 -- -- 73
2017-09-24 20:00:00 25.5 11 Sudoeste 26 Sudoeste 0 -- -- 59
2017-09-24 19:00:00 27.5 22 Oeste 31 Oeste 0 -- -- 52
2017-09-24 18:00:00 29.5 21 Oeste 31 Oeste 0 -- -- 46
2017-09-24 17:00:00 30.2 20 Oeste 28 Oeste 0 -- -- 46
2017-09-24 16:00:00 31.9 17 Sudoeste 24 Oeste 0 -- -- 42
2017-09-24 15:00:00 31.2 4 Sudeste 17 Este 0 -- -- 41
2017-09-24 14:00:00 29.7 6 Nordeste 19 Este 0 -- -- 47
2017-09-24 13:00:00 28.4 7 Este 20 Nordeste 0 -- -- 51
2017-09-24 12:00:00 26.1 6 Este 15 Este 0 -- -- 60
2017-09-24 11:00:00 22.7 8 Nordeste 15 Nordeste 0 -- -- 68
2017-09-24 10:00:00 18 8 Nordeste 13 Nordeste 0 -- -- 89
2017-09-24 09:00:00 15.1 8 Nordeste 11 Nordeste 0 -- -- 94
2017-09-24 08:00:00 16.7 2 Norte 11 Noroeste 0 -- -- 92
2017-09-24 07:00:00 18.1 9 Noroeste 13 Noroeste 0 -- -- 96
2017-09-24 06:00:00 16.5 4 Noroeste 6 Noroeste 0 -- -- 94
2017-09-24 05:00:00 17.9 4 Noroeste 8 Noroeste 0 -- -- 94
2017-09-24 04:00:00 18.4 6 Sudoeste 12 Sudoeste 0 -- -- 95
2017-09-24 03:00:00 18.4 7 Sudoeste 9 Sudoeste 0 -- -- 92
2017-09-24 02:00:00 18.6 8 Sudoeste 13 Sudoeste 0 -- -- 91
2017-09-24 01:00:00 19.3 10 Oeste 13 Oeste 0 -- -- 89
2017-09-24 00:00:00 20.5 7 Oeste 15 Oeste 0 -- -- 88
2017-09-23 23:00:00 20.9 7 Oeste 12 Oeste 0 -- -- 86
2017-09-23 22:00:00 21.5 9 Sudoeste 14 Oeste 0 -- -- 82
2017-09-23 21:00:00 22.8 11 Oeste 23 Sudoeste 0 -- -- 77
2017-09-23 20:00:00 24.9 18 Oeste 27 Oeste 0 -- -- 66
2017-09-23 19:00:00 27.9 21 Oeste 28 Oeste 0 -- -- 51
2017-09-23 18:00:00 29.8 19 Oeste 28 Sudoeste 0 -- -- 45
2017-09-23 17:00:00 31.6 20 Oeste 30 Sur 0 -- -- 40
2017-09-23 16:00:00 32 13 Sudoeste 24 Sudoeste 0 -- -- 36
2017-09-23 15:00:00 31 8 Norte 17 Oeste 0 -- -- 36
2017-09-23 14:00:00 30 9 Nordeste 19 Nordeste 0 -- -- 39
2017-09-23 13:00:00 28.9 10 Nordeste 23 Nordeste 0 -- -- 42
2017-09-23 12:00:00 26.8 9 Nordeste 24 Nordeste 0 -- -- 50
2017-09-23 11:00:00 23.9 13 Nordeste 20 Nordeste 0 -- -- 58
2017-09-23 10:00:00 18.3 9 Nordeste 13 Nordeste 0 -- -- 82
2017-09-23 09:00:00 14.4 5 Nordeste 8 Norte 0 -- -- 93
2017-09-23 08:00:00 13 4 Nordeste 7 Nordeste 0 -- -- 93
2017-09-23 07:00:00 13 6 Nordeste 11 Este 0 -- -- 92
2017-09-23 06:00:00 14 6 Norte 11 Norte 0 -- -- 91
2017-09-23 05:00:00 15.6 3 Noroeste 11 Noroeste 0 -- -- 86
2017-09-23 04:00:00 16.9 8 Noroeste 13 Noroeste 0 -- -- 91
2017-09-23 03:00:00 15.7 5 Norte 10 Noroeste 0 -- -- 89
2017-09-23 02:00:00 16.9 3 Noroeste 9 Oeste 0 -- -- 90
2017-09-23 01:00:00 17.1 7 Oeste 10 Oeste 0 -- -- 90
2017-09-23 00:00:00 17.7 8 Oeste 10 Oeste 0 -- -- 89
2017-09-22 23:00:00 19 6 Oeste 15 Oeste 0 -- -- 86
2017-09-22 22:00:00 19.7 11 Sudoeste 14 Sudoeste 0 -- -- 85
2017-09-22 21:00:00 20.8 10 Sudoeste 19 Sudoeste 0 -- -- 80
2017-09-22 20:00:00 22.9 14 Oeste 26 Sudoeste 0 -- -- 73
2017-09-22 19:00:00 25 22 Sudoeste 30 Sudoeste 0 -- -- 65
2017-09-22 18:00:00 26.8 22 Sudoeste 27 Oeste 0 -- -- 59
2017-09-22 17:00:00 28.4 19 Oeste 26 Sudoeste 0 -- -- 50
2017-09-22 16:00:00 28 19 Oeste 27 Sudoeste 0 -- -- 53
2017-09-22 15:00:00 27.6 17 Oeste 26 Oeste 0 -- -- 55
2017-09-22 14:00:00 27.6 15 Sudoeste 24 Oeste 0 -- -- 56
2017-09-22 13:00:00 26.9 12 Sudoeste 18 Sudoeste 0 -- -- 58
2017-09-22 12:00:00 25.7 12 Sudoeste 19 Sudoeste 0 -- -- 60
2017-09-22 11:00:00 23 8 Sur 13 Sudoeste 0 -- -- 67
2017-09-22 10:00:00 17.4 2 Nordeste 7 Noroeste 0 -- -- 83
2017-09-22 09:00:00 14 5 Noroeste 9 Noroeste 0 -- -- 87
2017-09-22 08:00:00 13.7 5 Oeste 11 Oeste 0 -- -- 91
2017-09-22 07:00:00 11.9 3 Oeste 12 Noroeste 0 -- -- 83
2017-09-22 06:00:00 14.3 6 Noroeste 10 Oeste 0 -- -- 82
2017-09-22 05:00:00 14.6 4 Este 9 Noroeste 0 -- -- 77
2017-09-22 04:00:00 17 7 Noroeste 9 Noroeste 0 -- -- 75
2017-09-22 03:00:00 16 8 Oeste 10 Sudoeste 0 -- -- 90
2017-09-22 02:00:00 16.2 7 Sudoeste 12 Sudoeste 0 -- -- 91
2017-09-22 01:00:00 16 8 Sudoeste 10 Sudoeste 0 -- -- 89
2017-09-22 00:00:00 16.6 8 Sudoeste 10 Sudoeste 0 -- -- 87
2017-09-21 23:00:00 17.8 6 Sudoeste 10 Sudoeste 0 -- -- 83
2017-09-21 22:00:00 18.8 7 Sudoeste 13 Oeste 0 -- -- 75
2017-09-21 21:00:00 20.8 11 Oeste 26 Oeste 0 -- -- 63
2017-09-21 20:00:00 23.4 16 Oeste 28 Oeste 0 -- -- 60
2017-09-21 19:00:00 25.6 18 Oeste 27 Oeste 0 -- -- 51
2017-09-21 18:00:00 27.2 20 Sudoeste 28 Sudoeste 0 -- -- 47
2017-09-21 17:00:00 28.3 22 Oeste 30 Oeste 0 -- -- 41
2017-09-21 16:00:00 27.6 23 Oeste 30 Sudoeste 0 -- -- 48
2017-09-21 15:00:00 28.2 19 Sudoeste 27 Oeste 0 -- -- 43
2017-09-21 14:00:00 28.7 16 Sudoeste 22 Sudoeste 0 -- -- 37
2017-09-21 13:00:00 28.3 12 Sudoeste 20 Sudoeste 0 -- -- 41
2017-09-21 12:00:00 25.9 4 Sur 10 Sudeste 0 -- -- 44
2017-09-21 11:00:00 21.1 3 Nordeste 10 Nordeste 0 -- -- 60
2017-09-21 10:00:00 15.9 3 Nordeste 8 Nordeste 0 -- -- 80
2017-09-21 09:00:00 10.8 2 Norte 5 Norte 0 -- -- 93
2017-09-21 08:00:00 10.3 0 Calma 5 Nordeste 0 -- -- 89
2017-09-21 07:00:00 10.9 3 Nordeste 5 Nordeste 0 -- -- 85
2017-09-21 06:00:00 12 0 Calma 8 Este 0 -- -- 87
2017-09-21 05:00:00 12.2 8 Nordeste 10 Este 0 -- -- 83
2017-09-21 04:00:00 13.3 0 Calma 9 Noroeste 0 -- -- 81
2017-09-21 03:00:00 14.8 3 Noroeste 9 Noroeste 0 -- -- 79
2017-09-21 02:00:00 16.3 5 Noroeste 12 Noroeste 0 -- -- 78
2017-09-21 01:00:00 17 7 Noroeste 12 Norte 0 -- -- 86
2017-09-21 00:00:00 16.2 8 Oeste 9 Oeste 0 -- -- 89
2017-09-20 23:00:00 17.1 6 Oeste 9 Oeste 0 -- -- 82
2017-09-20 22:00:00 18.9 6 Oeste 14 Oeste 0 -- -- 75
2017-09-20 21:00:00 20.9 10 Oeste 17 Oeste 0 -- -- 71
2017-09-20 20:00:00 23.5 14 Oeste 24 Sudoeste 0 -- -- 60
2017-09-20 19:00:00 24.9 19 Oeste 30 Sudoeste 0 -- -- 56
2017-09-20 18:00:00 27.1 21 Oeste 28 Sudoeste 0 -- -- 50
2017-09-20 17:00:00 29.3 18 Sudoeste 25 Sudoeste 0 -- -- 38
2017-09-20 16:00:00 29.4 18 Sudoeste 26 Sudoeste 0 -- -- 39
2017-09-20 15:00:00 28.7 16 Oeste 23 Oeste 0 -- -- 42
2017-09-20 14:00:00 28.9 10 Sudoeste 21 Sudoeste 0 -- -- 45
2017-09-20 13:00:00 28.1 8 Sudoeste 17 Sudoeste 0 -- -- 50
2017-09-20 12:00:00 26.3 8 Sur 17 Sur 0 -- -- 51
2017-09-20 11:00:00 21.7 5 Nordeste 9 Este 0 -- -- 75
2017-09-20 10:00:00 15.7 5 Nordeste 9 Nordeste 0 -- -- 92
2017-09-20 09:00:00 11.6 6 Nordeste 10 Nordeste 0 -- -- 94
2017-09-20 08:00:00 11.4 3 Norte 6 Nordeste 0 -- -- 95
2017-09-20 07:00:00 10.8 4 Norte 6 Sur 0 -- -- 94
2017-09-20 06:00:00 12 3 Sur 6 Sur 0 -- -- 95
2017-09-20 05:00:00 11.9 5 Oeste 5 Oeste 0 -- -- 93
2017-09-20 04:00:00 13.1 4 Sudoeste 7 Sur 0 -- -- 93
2017-09-20 03:00:00 13.7 2 Sur 9 Sudeste 0 -- -- 92
2017-09-20 02:00:00 14.2 3 Sudeste 5 Sudeste 0 -- -- 90
2017-09-20 01:00:00 14.9 3 Sudeste 9 Sur 0 -- -- 88
2017-09-20 00:00:00 16 5 Sur 8 Oeste 0 -- -- 84